createdAt,value
2022-11-26T00:00:22.337Z,98828.05
2022-11-26T00:03:14.988Z,98832.06
2022-11-26T00:05:50.781Z,98836.95
2022-11-26T00:11:38.298Z,98840.62
2022-11-26T00:14:15.856Z,98843.16
2022-11-26T00:16:48.083Z,98843.52
2022-11-26T00:19:20.226Z,98842.46
2022-11-26T00:21:52.363Z,98841.45
2022-11-26T00:24:29.861Z,98843.13
2022-11-26T00:27:02.596Z,98840.11
2022-11-26T00:29:34.642Z,98839.59
2022-11-26T00:32:15.242Z,98840.96
2022-11-26T00:34:46.208Z,98845.84
2022-11-26T00:37:23.812Z,98843.96
2022-11-26T00:39:57.357Z,98847.41
2022-11-26T00:42:29.794Z,98844.40
2022-11-26T00:45:01.942Z,98844.74
2022-11-26T00:47:34.256Z,98853.27
2022-11-26T00:50:07.816Z,98849.56
2022-11-26T00:52:40.102Z,98846.86
2022-11-26T00:55:25.320Z,98847.40
2022-11-26T00:57:58.431Z,98849.58
2022-11-26T01:00:32.736Z,98850.95
2022-11-26T01:03:05.243Z,98852.42
2022-11-26T01:05:38.501Z,98848.45
2022-11-26T01:08:20.893Z,98854.57
2022-11-26T01:10:55.996Z,98854.44
2022-11-26T01:13:28.797Z,98855.02
2022-11-26T01:16:02.474Z,98858.06
2022-11-26T01:18:38.942Z,98854.70
2022-11-26T01:21:13.111Z,98852.84
2022-11-26T01:23:45.752Z,98857.74
2022-11-26T01:26:20.705Z,98856.23
2022-11-26T01:28:53.228Z,98856.80
2022-11-26T01:31:27.544Z,98858.13
2022-11-26T01:34:00.047Z,98860.58
2022-11-26T01:36:34.143Z,98861.84
2022-11-26T01:39:11.836Z,98865.81
2022-11-26T01:41:53.049Z,98863.12
2022-11-26T01:44:27.661Z,98864.14
2022-11-26T01:47:00.952Z,98865.31
2022-11-26T01:49:35.429Z,98860.59
2022-11-26T01:52:14.478Z,98858.59
2022-11-26T01:54:48.925Z,98863.27
2022-11-26T01:57:26.624Z,98868.69
2022-11-26T02:00:01.766Z,98868.38
2022-11-26T02:02:34.741Z,98871.02
2022-11-26T02:05:13.732Z,98872.72
2022-11-26T02:07:46.239Z,98880.09
2022-11-26T02:10:19.562Z,98881.13
2022-11-26T02:12:53.008Z,98880.80
2022-11-26T02:15:29.008Z,98876.71
2022-11-26T02:18:06.689Z,98877.60
2022-11-26T02:20:50.212Z,98882.52
2022-11-26T02:23:59.720Z,98884.67
2022-11-26T02:27:01.579Z,98885.89
2022-11-26T02:29:54.556Z,98890.04
2022-11-26T02:32:33.996Z,98890.52
2022-11-26T02:35:13.634Z,98895.09
2022-11-26T02:37:53.054Z,98893.89
2022-11-26T02:40:27.112Z,98886.29
2022-11-26T02:43:00.423Z,98879.02
2022-11-26T02:45:36.419Z,98879.27
2022-11-26T02:48:11.884Z,98883.10
2022-11-26T02:50:48.534Z,98884.61
2022-11-26T02:53:23.696Z,98885.11
2022-11-26T02:56:03.042Z,98883.55
2022-11-26T02:58:39.320Z,98888.47
2022-11-26T03:01:16.888Z,98887.60
2022-11-26T03:03:53.213Z,98890.38
2022-11-26T03:06:27.276Z,98888.67
2022-11-26T03:08:59.825Z,98890.67
2022-11-26T03:11:32.048Z,98890.84
2022-11-26T03:14:04.242Z,98890.61
2022-11-26T03:16:36.492Z,98898.85
2022-11-26T03:19:08.701Z,98898.21
2022-11-26T03:21:41.201Z,98903.02
2022-11-26T03:24:13.743Z,98914.73
2022-11-26T03:26:46.043Z,98922.88
2022-11-26T03:29:19.213Z,98916.02
2022-11-26T03:31:51.389Z,98922.60
2022-11-26T03:34:23.631Z,98916.48
2022-11-26T03:36:56.235Z,98919.82
2022-11-26T03:39:28.571Z,98920.05
2022-11-26T03:42:00.981Z,98910.30
2022-11-26T03:44:33.734Z,98915.20
2022-11-26T03:47:06.306Z,98916.64
2022-11-26T03:49:38.776Z,98910.45
2022-11-26T03:52:10.954Z,98909.46
2022-11-26T03:54:43.221Z,98908.47
2022-11-26T03:57:18.382Z,98911.81
2022-11-26T03:59:50.683Z,98914.98
2022-11-26T04:02:22.923Z,98922.56
2022-11-26T04:04:55.476Z,98925.80
2022-11-26T04:07:27.724Z,98929.48
2022-11-26T04:10:00.221Z,98936.86
2022-11-26T04:12:32.420Z,98943.55
2022-11-26T04:15:06.499Z,98947.27
2022-11-26T04:17:38.705Z,98947.39
2022-11-26T04:20:12.664Z,98949.25
2022-11-26T04:22:44.755Z,98954.29
2022-11-26T04:25:16.881Z,98957.95
2022-11-26T04:27:48.937Z,98960.70
2022-11-26T04:30:21.343Z,98961.62
2022-11-26T04:32:53.732Z,98961.64
2022-11-26T04:35:29.609Z,98964.19
2022-11-26T04:38:01.804Z,98967.98
2022-11-26T04:40:34.276Z,98971.95
2022-11-26T04:43:06.417Z,98972.09
2022-11-26T04:45:38.658Z,98970.38
2022-11-26T04:48:11.058Z,98974.21
2022-11-26T04:50:43.231Z,98978.27
2022-11-26T04:53:15.507Z,98980.04
2022-11-26T04:55:48.676Z,98982.60
2022-11-26T04:58:23.425Z,98987.70
2022-11-26T05:00:55.835Z,98985.71
2022-11-26T05:03:29.193Z,98982.62
2022-11-26T05:06:01.653Z,98981.71
2022-11-26T05:08:33.882Z,98984.16
2022-11-26T05:11:06.311Z,98982.80
2022-11-26T05:13:39.689Z,98987.08
2022-11-26T05:16:12.234Z,98990.71
2022-11-26T05:18:44.469Z,98990.03
2022-11-26T05:21:16.730Z,98988.29
2022-11-26T05:23:48.853Z,98994.62
2022-11-26T05:26:21.065Z,98994.96
2022-11-26T05:28:54.568Z,98987.32
2022-11-26T05:31:28.608Z,98989.77
2022-11-26T05:34:00.762Z,98994.16
2022-11-26T05:36:33.158Z,98994.43
2022-11-26T05:39:05.542Z,98995.45
2022-11-26T05:41:38.126Z,98998.15
2022-11-26T05:44:10.461Z,98998.23
2022-11-26T05:46:44.025Z,98999.06
2022-11-26T05:49:16.209Z,99002.81
2022-11-26T05:51:48.766Z,99001.90
2022-11-26T05:54:20.941Z,99005.51
2022-11-26T05:56:58.474Z,99020.50
2022-11-26T05:59:32.350Z,99026.23
2022-11-26T06:02:04.689Z,99029.65
2022-11-26T06:04:37.063Z,99030.17
2022-11-26T06:07:09.337Z,99030.95
2022-11-26T06:09:41.751Z,99031.36
2022-11-26T06:12:13.985Z,99032.69
2022-11-26T06:14:46.369Z,99036.41
2022-11-26T06:17:18.745Z,99040.55
2022-11-26T06:19:51.079Z,99042.48
2022-11-26T06:22:23.306Z,99042.94
2022-11-26T06:24:57.890Z,99047.00
2022-11-26T06:27:30.216Z,99045.85
2022-11-26T06:30:04.717Z,99049.35
2022-11-26T06:32:36.994Z,99049.40
2022-11-26T06:35:10.252Z,99050.12
2022-11-26T06:37:43.860Z,99050.04
2022-11-26T06:40:22.356Z,99053.02
2022-11-26T06:42:55.233Z,99050.37
2022-11-26T06:45:27.763Z,99049.48
2022-11-26T06:47:59.914Z,99050.50
2022-11-26T06:50:32.444Z,99053.30
2022-11-26T06:53:13.083Z,99056.34
2022-11-26T06:55:45.298Z,99061.10
2022-11-26T06:58:18.662Z,99069.09
2022-11-26T07:00:50.743Z,99072.42
2022-11-26T07:03:24.897Z,99073.20
2022-11-26T07:05:59.140Z,99074.80
2022-11-26T07:08:31.219Z,99074.96
2022-11-26T07:11:05.809Z,99075.80
2022-11-26T07:13:37.926Z,99081.33
2022-11-26T07:16:10.587Z,99081.38
2022-11-26T07:18:45.768Z,99084.85
2022-11-26T07:21:17.922Z,99083.32
2022-11-26T07:23:50.936Z,99084.52
2022-11-26T07:26:24.182Z,99084.88
2022-11-26T07:28:56.504Z,99081.42
2022-11-26T07:31:28.603Z,99088.37
2022-11-26T07:34:00.743Z,99096.98
2022-11-26T07:36:33.436Z,99099.95
2022-11-26T07:39:06.432Z,99105.09
2022-11-26T07:41:38.771Z,99107.14
2022-11-26T07:44:14.669Z,99105.64
2022-11-26T07:46:46.730Z,99105.84
2022-11-26T07:49:19.020Z,99106.04
2022-11-26T07:51:51.254Z,99108.05
2022-11-26T07:54:31.148Z,99111.05
2022-11-26T07:57:03.394Z,99113.16
2022-11-26T07:59:41.717Z,99115.84
2022-11-26T08:02:16.641Z,99118.87
2022-11-26T08:05:44.033Z,99123.41
2022-11-26T08:08:16.197Z,99127.49
2022-11-26T08:10:48.234Z,99126.24
2022-11-26T08:13:20.257Z,99127.45
2022-11-26T08:15:55.360Z,99127.25
2022-11-26T08:18:27.453Z,99130.12
2022-11-26T08:21:01.015Z,99128.73
2022-11-26T08:23:34.712Z,99132.84
2022-11-26T08:29:03.503Z,99136.74
2022-11-26T08:31:38.003Z,99138.52
2022-11-26T08:34:16.315Z,99137.75
2022-11-26T08:36:49.121Z,99139.08
2022-11-26T08:39:21.422Z,99140.25
2022-11-26T08:41:53.666Z,99141.14
2022-11-26T08:44:29.500Z,99146.23
2022-11-26T08:47:01.824Z,99146.09
2022-11-26T08:49:34.758Z,99144.64
2022-11-26T08:52:07.520Z,99144.63
2022-11-26T08:54:45.001Z,99150.94
2022-11-26T08:58:07.009Z,99152.58
2022-11-26T09:00:41.128Z,99151.05
2022-11-26T09:03:13.325Z,99152.40
2022-11-26T09:06:05.174Z,99155.09
2022-11-26T09:09:00.016Z,99156.53
2022-11-26T09:20:16.843Z,99170.80
2022-11-26T09:22:50.368Z,99172.81
2022-11-26T09:25:28.964Z,99173.34
2022-11-26T09:28:01.144Z,99177.70
2022-11-26T09:30:39.841Z,99182.14
2022-11-26T09:33:12.099Z,99187.10
2022-11-26T09:36:23.558Z,99184.37
2022-11-26T09:39:02.429Z,99183.88
2022-11-26T09:46:11.457Z,99183.84
2022-11-26T09:50:02.573Z,99177.89
2022-11-26T09:52:41.221Z,99176.60
2022-11-26T09:55:21.266Z,99180.02
2022-11-26T09:58:00.510Z,99176.05
2022-11-26T10:00:36.679Z,99175.77
2022-11-26T10:03:15.984Z,99173.59
2022-11-26T10:06:05.966Z,99176.59
2022-11-26T10:09:09.144Z,99173.70
2022-11-26T10:11:53.489Z,99179.29
2022-11-26T10:14:37.548Z,99174.63
2022-11-26T10:17:29.460Z,99175.84
2022-11-26T10:20:23.073Z,99175.93
2022-11-26T10:23:00.321Z,99179.79
2022-11-26T10:25:42.848Z,99184.30
2022-11-26T10:28:22.258Z,99187.09
2022-11-26T10:31:00.429Z,99186.09
2022-11-26T10:33:39.090Z,99191.02
2022-11-26T10:36:20.402Z,99185.81
2022-11-26T10:38:53.086Z,99182.77
2022-11-26T10:41:27.790Z,99178.14
2022-11-26T10:44:13.801Z,99178.19
2022-11-26T10:46:45.896Z,99176.33
2022-11-26T10:49:26.699Z,99175.88
2022-11-26T10:52:02.760Z,99178.27
2022-11-26T10:54:37.728Z,99179.36
2022-11-26T10:57:18.941Z,99180.23
2022-11-26T10:59:53.289Z,99180.71
2022-11-26T11:02:34.492Z,99180.68
2022-11-26T11:05:09.370Z,99179.23
2022-11-26T11:07:45.045Z,99181.77
2022-11-26T11:10:18.895Z,99180.32
2022-11-26T11:13:02.596Z,99182.51
2022-11-26T11:15:36.304Z,99183.27
2022-11-26T11:18:16.140Z,99182.80
2022-11-26T11:20:56.725Z,99179.40
2022-11-26T11:23:52.256Z,99179.24
2022-11-26T11:26:24.695Z,99181.64
2022-11-26T11:28:58.312Z,99184.51
2022-11-26T11:31:32.174Z,99187.94
2022-11-26T11:34:21.615Z,99188.48
2022-11-26T11:37:05.709Z,99189.03
2022-11-26T11:39:38.356Z,99187.41
2022-11-26T11:42:23.709Z,99187.36
2022-11-26T11:44:57.653Z,99186.55
2022-11-26T11:47:37.710Z,99184.51
2022-11-26T11:50:21.188Z,99185.73
2022-11-26T11:53:21.447Z,99192.79
2022-11-26T11:56:09.884Z,99196.21
2022-11-26T11:59:10.037Z,99195.20
2022-11-26T12:01:55.261Z,99196.69
2022-11-26T12:04:47.754Z,99196.06
2022-11-26T12:07:38.714Z,99197.77
2022-11-26T12:10:21.812Z,99200.99
2022-11-26T12:12:56.782Z,99202.27
2022-11-26T12:15:31.686Z,99204.16
2022-11-26T12:18:14.812Z,99205.30
2022-11-26T12:20:51.704Z,99205.45
2022-11-26T12:23:33.741Z,99206.04
2022-11-26T12:26:11.920Z,99209.23
2022-11-26T12:29:03.290Z,99210.73
2022-11-26T12:31:40.134Z,99212.95
2022-11-26T12:34:18.025Z,99215.70
2022-11-26T12:36:55.871Z,99223.08
2022-11-26T12:49:14.194Z,99226.71
2022-11-26T13:23:04.277Z,99237.59
2022-11-26T13:25:52.854Z,99234.27
2022-11-26T13:28:40.886Z,99233.67
2022-11-26T13:31:29.122Z,99237.64
2022-11-26T13:34:16.912Z,99244.16
2022-11-26T13:37:10.008Z,99245.35
2022-11-26T13:40:07.050Z,99246.04
2022-11-26T13:42:59.226Z,99250.46
2022-11-26T13:46:03.932Z,99257.95
2022-11-26T14:02:22.778Z,99278.55
2022-11-26T14:08:53.434Z,99283.30
2022-11-26T14:11:57.994Z,99285.05
2022-11-26T14:33:22.817Z,99297.59
2022-11-26T14:39:44.114Z,99306.91
2022-11-26T14:42:22.381Z,99309.27
2022-11-26T15:03:09.507Z,99322.80
2022-11-26T15:19:18.235Z,99350.42
2022-11-26T15:22:32.064Z,99354.17
2022-11-26T15:25:05.162Z,99354.77
2022-11-26T15:28:19.273Z,99353.42
2022-11-26T15:35:22.331Z,99353.36
2022-11-26T15:38:01.845Z,99357.65
2022-11-26T15:44:55.787Z,99360.86
2022-11-26T15:47:34.434Z,99363.96
2022-11-26T15:50:07.646Z,99368.71
2022-11-26T15:52:47.808Z,99369.94
2022-11-26T15:59:51.621Z,99373.05
2022-11-26T16:20:00.757Z,99388.40
2022-11-26T16:35:43.529Z,99402.92
2022-11-26T16:38:25.003Z,99404.80
2022-11-26T16:40:59.708Z,99403.70
2022-11-26T16:45:03.940Z,99406.57
2022-11-26T16:52:23.083Z,99419.02
2022-11-26T16:54:55.680Z,99417.95
2022-11-26T16:57:34.691Z,99420.55
2022-11-26T17:00:09.766Z,99423.63
2022-11-26T17:03:37.640Z,99430.55
2022-11-26T17:10:41.076Z,99440.29
2022-11-26T17:14:00.555Z,99443.83
2022-11-26T17:21:24.249Z,99447.80
2022-11-26T17:24:02.480Z,99447.91
2022-11-26T17:26:34.884Z,99449.34
2022-11-26T17:29:15.632Z,99446.29
2022-11-26T17:32:14.850Z,99446.95
2022-11-26T17:35:43.786Z,99448.44
2022-11-26T17:38:17.843Z,99453.21
2022-11-26T17:40:56.680Z,99456.55
2022-11-26T17:43:28.988Z,99462.75
2022-11-26T17:50:26.279Z,99474.41
2022-11-26T17:53:47.430Z,99480.02
2022-11-26T17:56:28.116Z,99477.70
2022-11-26T17:59:03.453Z,99479.58
2022-11-26T18:02:31.620Z,99477.66
2022-11-26T18:05:04.143Z,99477.81
2022-11-26T18:07:43.147Z,99479.92
2022-11-26T18:14:48.328Z,99482.71
2022-11-26T18:17:20.497Z,99485.16
2022-11-26T18:19:59.702Z,99492.50
2022-11-26T18:22:31.936Z,99496.02
2022-11-26T18:25:11.078Z,99499.33
2022-11-26T18:27:43.850Z,99496.05
2022-11-26T18:34:41.252Z,99496.85
2022-11-26T18:37:14.577Z,99498.80
2022-11-26T18:39:46.817Z,99497.39
2022-11-26T18:42:41.024Z,99501.38
2022-11-26T18:45:25.843Z,99503.92
2022-11-26T18:49:10.129Z,99504.55
2022-11-26T18:55:58.651Z,99507.52
2022-11-26T18:58:37.733Z,99510.23
2022-11-26T19:01:16.550Z,99509.94
2022-11-26T19:03:57.232Z,99512.44
2022-11-26T19:15:26.665Z,99523.80
2022-11-26T19:22:37.220Z,99529.89
2022-11-26T19:29:51.716Z,99536.91
2022-11-26T19:33:30.207Z,99540.94
2022-11-26T19:36:11.492Z,99549.83
2022-11-26T19:39:33.574Z,99554.73
2022-11-26T19:42:13.202Z,99555.45
2022-11-26T19:49:45.942Z,99560.54
2022-11-26T19:52:18.190Z,99561.36
2022-11-26T19:54:50.487Z,99568.35
2022-11-26T20:02:05.187Z,99572.83
2022-11-26T20:04:37.684Z,99573.34
2022-11-26T20:12:25.254Z,99575.61
2022-11-26T20:15:03.797Z,99570.59
2022-11-26T20:17:35.974Z,99571.80
2022-11-26T20:27:37.913Z,99584.77
2022-11-26T20:30:12.242Z,99587.82
2022-11-26T20:37:11.218Z,99588.54
2022-11-26T20:44:43.484Z,99584.06
2022-11-26T20:47:21.836Z,99583.36
2022-11-26T20:49:54.079Z,99584.69
2022-11-26T20:52:32.688Z,99582.91
2022-11-26T20:59:58.021Z,99581.86
2022-11-26T21:02:30.818Z,99581.41
2022-11-26T21:05:36.970Z,99587.67
2022-11-26T21:08:09.248Z,99591.57
2022-11-26T21:10:47.964Z,99587.59
2022-11-26T21:18:10.823Z,99587.94
2022-11-26T21:21:13.627Z,99594.71
2022-11-26T21:28:15.778Z,99589.48
2022-11-26T21:30:49.455Z,99592.18
2022-11-26T21:33:21.735Z,99598.56
2022-11-26T21:36:54.114Z,99595.88
2022-11-26T21:39:26.907Z,99601.10
2022-11-26T21:41:59.026Z,99602.19
2022-11-26T21:49:31.062Z,99606.27
2022-11-26T21:52:30.518Z,99606.39
2022-11-26T21:55:10.125Z,99603.13
2022-11-26T21:58:21.777Z,99601.40
2022-11-26T22:01:00.916Z,99601.79
2022-11-26T22:03:35.033Z,99604.01
2022-11-26T22:06:14.421Z,99606.20
2022-11-26T22:08:47.622Z,99604.95
2022-11-26T22:11:27.758Z,99604.00
2022-11-26T22:18:50.835Z,99607.48
2022-11-26T22:21:31.949Z,99604.83
2022-11-26T22:24:21.951Z,99604.33
2022-11-26T22:27:00.846Z,99605.21
2022-11-26T22:29:32.999Z,99607.58
2022-11-26T22:32:05.241Z,99607.06
2022-11-26T22:34:44.248Z,99605.69
2022-11-26T22:37:16.538Z,99605.95
2022-11-26T22:39:55.151Z,99600.77
2022-11-26T22:42:55.258Z,99599.13
2022-11-26T22:46:24.709Z,99602.17
2022-11-26T23:02:19.005Z,99602.13
2022-11-26T23:05:32.646Z,99599.92
2022-11-26T23:08:05.106Z,99596.37
2022-11-26T23:11:19.646Z,99596.52
2022-11-26T23:13:55.655Z,99601.96
2022-11-26T23:17:08.686Z,99593.45
2022-11-26T23:19:41.958Z,99587.63
2022-11-26T23:23:20.099Z,99582.34
2022-11-26T23:25:52.266Z,99582.36
2022-11-26T23:28:24.473Z,99585.82
2022-11-26T23:31:05.167Z,99588.83
2022-11-26T23:35:13.837Z,99585.02
2022-11-26T23:37:46.146Z,99588.98
2022-11-26T23:40:18.695Z,99590.14
2022-11-26T23:43:15.061Z,99584.66
2022-11-26T23:50:51.484Z,99586.81
2022-11-26T23:57:46.190Z,99588.99
